Time;durP1;ratioP1;P1;durP2;ratioP2;P2;SDS_P1;SDS_P2;PMS_P1;PMS_P2;Temp;Humidity;BMP_temperature;BMP_pressure;BME280_temperature;BME280_humidity;BME280_pressure;Samples;Min_cycle;Max_cycle;Signal;HPM_P1;HPM_P2
2023/11/03 00:02:35;;;;;;;;;;;;;;;;;;6282453;28;19989;-82
2023/11/03 00:05:38;;;;;;;;;;;;;;;;;;6295409;28;20071;-82
2023/11/03 00:08:38;;;;;;;;;;;;;;;;;;6299420;28;19943;-82
2023/11/03 00:11:38;;;;;;;;;;;;;;;;;;6296123;28;20281;-82
2023/11/03 00:14:38;;;;;;;;;;;;;;;;;;6296467;28;19962;-82
2023/11/03 00:17:38;;;;;;;;;;;;;;;;;;6292381;28;20276;-82
2023/11/03 00:20:40;;;;;;;;;;;;;;;;;;6276182;28;20293;-82
2023/11/03 00:23:42;;;;;;;;;;;;;;;;;;6310540;28;19927;-82
2023/11/03 00:26:43;;;;;;;;;;;;;;;;;;6295404;28;19964;-82
2023/11/03 00:29:43;;;;;;;;;;;;;;;;;;6295086;28;19923;-82
2023/11/03 00:32:44;;;;;;;;;;;;;;;;;;6292432;28;19922;-82
2023/11/03 00:35:44;;;;;;;;;;;;;;;;;;6268782;28;19928;-82
2023/11/03 00:38:44;;;;;;;;;;;;;;;;;;6288850;28;19908;-82
2023/11/03 00:41:46;;;;;;;;;;;;;;;;;;6296428;28;19944;-82
2023/11/03 00:44:46;;;;;;;;;;;;;;;;;;6272680;28;19913;-82
2023/11/03 00:47:46;;;;;;;;;;;;;;;;;;6274589;28;19924;-83
2023/11/03 00:50:46;;;;;;;;;;;;;;;;;;6275203;28;19932;-82
2023/11/03 00:53:46;;;;;;;;;;;;;;;;;;6275415;28;19921;-82
2023/11/03 00:56:46;;;;;;;;;;;;;;;;;;6276227;28;19913;-82
2023/11/03 00:59:52;;;;;;;;;;;;;;;;;;6272137;28;19972;-82
2023/11/03 01:02:52;;;;;;;;;;;;;;;;;;6292262;28;19919;-82
2023/11/03 01:05:53;;;;;;;;;;;;;;;;;;6273341;28;19921;-82
2023/11/03 01:08:53;;;;;;;;;;;;;;;;;;6272338;28;19925;-82
2023/11/03 01:11:56;;;;;;;;;;;;;;;;;;6282269;28;19928;-82
2023/11/03 01:14:57;;;;;;;;;;;;;;;;;;6276780;28;19924;-82
2023/11/03 01:17:59;;;;;;;;;;;;;;;;;;6277740;28;19917;-83
2023/11/03 01:21:12;;;;;;;;;;;;;;;;;;6273203;28;19951;-82
2023/11/03 01:24:15;;;;;;;;;;;;;;;;;;6294533;28;19928;-82
2023/11/03 01:27:17;;;;;;;;;;;;;;;;;;6274458;28;20328;-83
2023/11/03 01:30:20;;;;;;;;;;;;;;;;;;6276667;28;19917;-83
2023/11/03 01:33:20;;;;;;;;;;;;;;;;;;6291116;28;19917;-83
2023/11/03 01:36:20;;;;;;;;;;;;;;;;;;6272180;28;20313;-83
2023/11/03 01:39:20;;;;;;;;;;;;;;;;;;6277659;28;20355;-79
2023/11/03 01:42:23;;;;;;;;;;;;;;;;;;6268371;28;19912;-79
2023/11/03 01:45:23;;;;;;;;;;;;;;;;;;6275040;28;19917;-79
2023/11/03 01:48:26;;;;;;;;;;;;;;;;;;6276476;28;19925;-79
2023/11/03 01:51:29;;;;;;;;;;;;;;;;;;6270556;28;19921;-80
2023/11/03 01:54:37;;;;;;;;;;;;;;;;;;6281157;28;20396;-79
2023/11/03 01:57:50;;;;;;;;;;;;;;;;;;;;;
2023/11/03 02:00:51;;;;;;;;;;;;;;;;;;6274429;28;19995;-78
2023/11/03 02:03:51;;;;;;;;;;;;;;;;;;6273252;28;19973;-79
2023/11/03 02:06:51;;;;;;;;;;;;;;;;;;6278128;28;19917;-82
2023/11/03 02:09:51;;;;;;;;;;;;;;;;;;6271370;28;19916;-80
2023/11/03 02:12:51;;;;;;;;;;;;;;;;;;6279349;28;19925;-78
2023/11/03 02:15:51;;;;;;;;;;;;;;;;;;6274229;28;19913;-79
2023/11/03 02:18:51;;;;;;;;;;;;;;;;;;6272146;28;19970;-78
2023/11/03 02:21:51;;;;;;;;;;;;;;;;;;6289745;28;19921;-79
2023/11/03 02:24:52;;;;;;;;;;;;;;;;;;6270891;28;19912;-81
2023/11/03 02:27:52;;;;;;;;;;;;;;;;;;6273921;28;19924;-79
2023/11/03 02:30:52;;;;;;;;;;;;;;;;;;6273656;28;19916;-79
2023/11/03 02:33:53;;;;;;;;;;;;;;;;;;6272598;28;19912;-79
2023/11/03 02:36:53;;;;;;;;;;;;;;;;;;6270854;28;19973;-79
2023/11/03 02:39:53;;;;;;;;;;;;;;;;;;6271637;28;20001;-79
2023/11/03 02:42:53;;;;;;;;;;;;;;;;;;6273744;28;19916;-79
2023/11/03 02:45:53;;;;;;;;;;;;;;;;;;6272734;28;20312;-81
2023/11/03 02:48:53;;;;;;;;;;;;;;;;;;6271454;28;20693;-83
2023/11/03 02:51:53;;;;;;;;;;;;;;;;;;6271938;28;19917;-83
2023/11/03 02:54:53;;;;;;;;;;;;;;;;;;6274478;28;20461;-83
2023/11/03 02:57:53;;;;;;;;;;;;;;;;;;6275144;28;19955;-83
2023/11/03 03:00:54;;;;;;;;;;;;;;;;;;6273741;28;20000;-83
2023/11/03 03:03:54;;;;;;;;;;;;;;;;;;6270818;28;19943;-83
2023/11/03 03:06:54;;;;;;;;;;;;;;;;;;6269148;28;20372;-83
2023/11/03 03:09:54;;;;;;;;;;;;;;;;;;6268714;28;20375;-83
2023/11/03 03:12:54;;;;;;;;;;;;;;;;;;6288564;28;19921;-83
2023/11/03 03:15:54;;;;;;;;;;;;;;;;;;6273302;28;20007;-83
2023/11/03 03:18:55;;;;;;;;;;;;;;;;;;6274425;28;19925;-83
2023/11/03 03:21:55;;;;;;;;;;;;;;;;;;6272915;28;19920;-83
2023/11/03 03:24:55;;;;;;;;;;;;;;;;;;6272716;28;19917;-83
2023/11/03 03:27:55;;;;;;;;;;;;;;;;;;6271299;28;19924;-83
2023/11/03 03:30:55;;;;;;;;;;;;;;;;;;6273480;28;20293;-83
2023/11/03 03:33:55;;;;;;;;;;;;;;;;;;6270085;28;20484;-84
2023/11/03 03:36:55;;;;;;;;;;;;;;;;;;6272793;28;19955;-84
2023/11/03 03:39:56;;;;;;;;;;;;;;;;;;6275016;28;19925;-83
2023/11/03 03:42:56;;;;;;;;;;;;;;;;;;6270771;28;19923;-83
2023/11/03 03:45:56;;;;;;;;;;;;;;;;;;6276024;28;19931;-84
2023/11/03 03:48:56;;;;;;;;;;;;;;;;;;6272494;28;19920;-83
2023/11/03 03:51:56;;;;;;;;;;;;;;;;;;6272146;28;20281;-83
2023/11/03 03:54:57;;;;;;;;;;;;;;;;;;6271607;28;19963;-84
2023/11/03 03:57:58;;;;;;;;;;;;;;;;;;6273850;28;19920;-79
2023/11/03 04:00:58;;;;;;;;;;;;;;;;;;6274647;28;20027;-83
2023/11/03 04:03:58;;;;;;;;;;;;;;;;;;6271436;28;20433;-79
2023/11/03 04:06:58;;;;;;;;;;;;;;;;;;6273909;28;19967;-79
2023/11/03 04:09:59;;;;;;;;;;;;;;;;;;6269648;28;19917;-81
2023/11/03 04:12:59;;;;;;;;;;;;;;;;;;6276395;28;19946;-80
2023/11/03 04:15:59;;;;;;;;;;;;;;;;;;6276986;28;20015;-80
2023/11/03 04:18:59;;;;;;;;;;;;;;;;;;6278122;28;19917;-80
2023/11/03 04:21:59;;;;;;;;;;;;;;;;;;6290422;28;19991;-79
2023/11/03 04:24:59;;;;;;;;;;;;;;;;;;6280696;28;19919;-80
2023/11/03 04:27:59;;;;;;;;;;;;;;;;;;6277600;28;20031;-82
2023/11/03 04:30:59;;;;;;;;;;;;;;;;;;6278824;28;19969;-80
2023/11/03 04:34:00;;;;;;;;;;;;;;;;;;6294589;28;19913;-82
2023/11/03 04:37:00;;;;;;;;;;;;;;;;;;6277504;28;19924;-79
2023/11/03 04:40:00;;;;;;;;;;;;;;;;;;6276215;28;19924;-80
2023/11/03 04:43:00;;;;;;;;;;;;;;;;;;6276588;28;20396;-80
2023/11/03 04:46:00;;;;;;;;;;;;;;;;;;6274453;28;19963;-79
2023/11/03 04:49:01;;;;;;;;;;;;;;;;;;6277963;28;19925;-79
2023/11/03 04:52:01;;;;;;;;;;;;;;;;;;6272240;28;19928;-79
2023/11/03 04:55:01;;;;;;;;;;;;;;;;;;6278551;28;19920;-79
2023/11/03 04:58:01;;;;;;;;;;;;;;;;;;6287203;28;19916;-79
2023/11/03 05:01:01;;;;;;;;;;;;;;;;;;6273705;28;19913;-80
2023/11/03 05:04:01;;;;;;;;;;;;;;;;;;5929885;28;10000571;-83
2023/11/03 05:07:01;;;;;;;;;;;;;;;;;;6277435;28;20422;-79
2023/11/03 05:10:02;;;;;;;;;;;;;;;;;;6277464;28;19916;-79
2023/11/03 05:13:04;;;;;;;;;;;;;;;;;;6269513;28;19920;-81
2023/11/03 05:16:05;;;;;;;;;;;;;;;;;;6294152;28;20106;-79
2023/11/03 05:19:05;;;;;;;;;;;;;;;;;;6272775;28;19921;-81
2023/11/03 05:22:05;;;;;;;;;;;;;;;;;;6275391;28;19964;-79
2023/11/03 05:25:05;;;;;;;;;;;;;;;;;;6288629;28;20361;-79
2023/11/03 05:28:05;;;;;;;;;;;;;;;;;;6271911;28;20297;-79
2023/11/03 05:31:06;;;;;;;;;;;;;;;;;;6276675;28;20450;-79
2023/11/03 05:34:06;;;;;;;;;;;;;;;;;;6271243;28;20003;-80
2023/11/03 05:37:06;;;;;;;;;;;;;;;;;;6276443;28;20000;-80
2023/11/03 05:40:11;;;;;;;;;;;;;;;;;;6272438;28;19912;-79
2023/11/03 05:43:11;;;;;;;;;;;;;;;;;;6272905;28;20019;-79
2023/11/03 05:46:11;;;;;;;;;;;;;;;;;;6288240;28;19921;-79
2023/11/03 05:49:11;;;;;;;;;;;;;;;;;;6276682;28;19917;-80
2023/11/03 05:52:11;;;;;;;;;;;;;;;;;;6272612;28;19916;-79
2023/11/03 05:55:11;;;;;;;;;;;;;;;;;;6275094;28;20019;-79
2023/11/03 05:58:11;;;;;;;;;;;;;;;;;;6274168;28;19917;-80
2023/11/03 06:01:12;;;;;;;;;;;;;;;;;;6271564;28;19924;-80
2023/11/03 06:04:12;;;;;;;;;;;;;;;;;;6275536;28;19913;-80
2023/11/03 06:07:12;;;;;;;;;;;;;;;;;;6273110;28;19913;-79
2023/11/03 06:10:13;;;;;;;;;;;;;;;;;;6270622;28;19917;-80
2023/11/03 06:13:14;;;;;;;;;;;;;;;;;;6274416;28;20378;-79
2023/11/03 06:16:14;;;;;;;;;;;;;;;;;;6273222;28;19927;-80
2023/11/03 06:19:14;;;;;;;;;;;;;;;;;;6273878;28;20456;-83
2023/11/03 06:22:14;;;;;;;;;;;;;;;;;;6269102;28;19921;-83
2023/11/03 06:25:14;;;;;;;;;;;;;;;;;;6272812;28;19913;-83
2023/11/03 06:28:15;;;;;;;;;;;;;;;;;;6270729;28;19923;-83
2023/11/03 06:31:18;;;;;;;;;;;;;;;;;;6283120;28;20442;-83
2023/11/03 06:34:19;;;;;;;;;;;;;;;;;;6267693;28;19920;-83
2023/11/03 06:37:19;;;;;;;;;;;;;;;;;;6285160;28;19921;-83
2023/11/03 06:40:19;;;;;;;;;;;;;;;;;;6271269;28;19919;-83
2023/11/03 06:43:19;;;;;;;;;;;;;;;;;;6273382;28;19920;-83
2023/11/03 06:46:19;;;;;;;;;;;;;;;;;;6274027;28;19920;-83
2023/11/03 06:49:20;;;;;;;;;;;;;;;;;;6271110;28;19916;-83
2023/11/03 06:52:20;;;;;;;;;;;;;;;;;;6268132;28;19925;-84
2023/11/03 06:55:20;;;;;;;;;;;;;;;;;;6272488;28;19925;-83
2023/11/03 06:58:20;;;;;;;;;;;;;;;;;;6273998;28;19957;-84
2023/11/03 07:01:20;;;;;;;;;;;;;;;;;;6272686;28;20498;-84
2023/11/03 07:04:24;;;;;;;;;;;;;;;;;;6273578;28;20365;-83
2023/11/03 07:07:24;;;;;;;;;;;;;;;;;;6289817;28;19944;-84
2023/11/03 07:10:24;;;;;;;;;;;;;;;;;;6274012;28;20384;-83
2023/11/03 07:13:25;;;;;;;;;;;;;;;;;;6272412;28;20198;-84
2023/11/03 07:16:25;;;;;;;;;;;;;;;;;;6278367;28;19913;-83
2023/11/03 07:19:25;;;;;;;;;;;;;;;;;;6289858;28;19955;-84
2023/11/03 07:22:25;;;;;;;;;;;;;;;;;;6293151;28;19974;-84
2023/11/03 07:25:26;;;;;;;;;;;;;;;;;;6271982;28;19917;-84
2023/11/03 07:28:26;;;;;;;;;;;;;;;;;;5920805;28;9999777;-79
2023/11/03 07:31:26;;;;;;;;;;;;;;;;;;6268995;28;20369;-79
2023/11/03 07:34:27;;;;;;;;;;;;;;;;;;6284194;28;19948;-79
2023/11/03 07:37:27;;;;;;;;;;;;;;;;;;6274687;28;19928;-79
2023/11/03 07:40:27;;;;;;;;;;;;;;;;;;6270346;28;19917;-79
2023/11/03 07:43:27;;;;;;;;;;;;;;;;;;6270165;28;19916;-79
2023/11/03 07:46:30;;;;;;;;;;;;;;;;;;6275957;28;20004;-79
2023/11/03 07:49:30;;;;;;;;;;;;;;;;;;5924163;28;9999727;-81
2023/11/03 07:52:30;;;;;;;;;;;;;;;;;;6275763;28;19920;-79
2023/11/03 07:55:30;;;;;;;;;;;;;;;;;;6292014;28;19975;-78
2023/11/03 07:58:31;;;;;;;;;;;;;;;;;;6279072;28;20432;-79
2023/11/03 08:01:31;;;;;;;;;;;;;;;;;;6289411;28;20401;-79
2023/11/03 08:04:31;;;;;;;;;;;;;;;;;;6274838;28;20338;-78
2023/11/03 08:07:31;;;;;;;;;;;;;;;;;;6281579;28;20023;-79
2023/11/03 08:10:31;;;;;;;;;;;;;;;;;;6284834;28;20440;-79
2023/11/03 08:13:32;;;;;;;;;;;;;;;;;;6290819;28;20073;-80
2023/11/03 08:16:32;;;;;;;;;;;;;;;;;;6295840;28;20414;-78
2023/11/03 08:19:32;;;;;;;;;;;;;;;;;;6275232;28;20377;-79
2023/11/03 08:22:32;;;;;;;;;;;;;;;;;;6273673;28;20357;-74
2023/11/03 08:25:32;;;;;;;;;;;;;;;;;;6273565;28;19916;-74
2023/11/03 08:28:33;;;;;;;;;;;;;;;;;;6271900;28;19932;-75
2023/11/03 08:31:34;;;;;;;;;;;;;;;;;;6286709;28;19920;-80
2023/11/03 08:34:34;;;;;;;;;;;;;;;;;;6299487;28;19912;-79
2023/11/03 08:37:34;;;;;;;;;;;;;;;;;;6317488;28;19931;-79
2023/11/03 08:40:34;;;;;;;;;;;;;;;;;;6290551;28;20508;-80
2023/11/03 08:43:35;;;;;;;;;;;;;;;;;;6275495;28;19921;-82
2023/11/03 08:46:35;;;;;;;;;;;;;;;;;;6279745;28;20254;-81
2023/11/03 08:49:35;;;;;;;;;;;;;;;;;;6297837;28;19920;-80
2023/11/03 08:52:35;;;;;;;;;;;;;;;;;;6280478;28;19947;-80
2023/11/03 08:55:35;;;;;;;;;;;;;;;;;;6288811;28;19912;-80
2023/11/03 08:58:35;;;;;;;;;;;;;;;;;;6284903;28;19920;-80
2023/11/03 09:01:36;;;;;;;;;;;;;;;;;;6285948;28;19920;-78
2023/11/03 09:04:36;;;;;;;;;;;;;;;;;;6274992;28;20363;-82
2023/11/03 09:07:36;;;;;;;;;;;;;;;;;;6275810;28;20395;-82
2023/11/03 09:10:36;;;;;;;;;;;;;;;;;;6273082;28;19983;-82
2023/11/03 09:13:36;;;;;;;;;;;;;;;;;;6288404;28;19916;-82
2023/11/03 09:16:36;;;;;;;;;;;;;;;;;;6280328;28;19958;-82
2023/11/03 09:19:37;;;;;;;;;;;;;;;;;;6275525;28;19971;-82
2023/11/03 09:22:37;;;;;;;;;;;;;;;;;;6270397;28;19936;-81
2023/11/03 09:25:37;;;;;;;;;;;;;;;;;;6274554;28;19913;-82
2023/11/03 09:28:39;;;;;;;;;;;;;;;;;;6288680;28;20356;-82
2023/11/03 09:31:39;;;;;;;;;;;;;;;;;;6289727;28;20300;-82
2023/11/03 09:34:39;;;;;;;;;;;;;;;;;;6278784;28;20010;-81
2023/11/03 09:37:39;;;;;;;;;;;;;;;;;;6274875;28;19912;-81
2023/11/03 09:40:39;;;;;;;;;;;;;;;;;;6276411;28;19967;-82
2023/11/03 09:43:41;;;;;;;;;;;;;;;;;;6280190;28;20438;-81
2023/11/03 09:46:41;;;;;;;;;;;;;;;;;;6274156;28;20379;-77
2023/11/03 09:49:43;;;;;;;;;;;;;;;;;;6273021;28;19916;-77
2023/11/03 09:52:44;;;;;;;;;;;;;;;;;;5922406;28;10000241;-78
2023/11/03 09:55:44;;;;;;;;;;;;;;;;;;6266721;28;19932;-79
2023/11/03 09:58:46;;;;;;;;;;;;;;;;;;6272914;28;19923;-82
2023/11/03 10:01:47;;;;;;;;;;;;;;;;;;6276360;28;19919;-81
2023/11/03 10:04:47;;;;;;;;;;;;;;;;;;6271355;28;19916;-81
2023/11/03 10:07:47;;;;;;;;;;;;;;;;;;6270795;28;19981;-79
2023/11/03 10:10:47;;;;;;;;;;;;;;;;;;6269533;28;20378;-78
2023/11/03 10:13:47;;;;;;;;;;;;;;;;;;6272139;28;19921;-78
2023/11/03 10:16:50;;;;;;;;;;;;;;;;;;6275826;28;20059;-83
2023/11/03 10:19:50;;;;;;;;;;;;;;;;;;6273897;28;19970;-83
2023/11/03 10:22:50;;;;;;;;;;;;;;;;;;6287589;28;19921;-78
2023/11/03 10:25:52;;;;;;;;;;;;;;;;;;6271368;28;19917;-78
2023/11/03 10:28:52;;;;;;;;;;;;;;;;;;6294703;28;19916;-78
2023/11/03 10:31:52;;;;;;;;;;;;;;;;;;6292680;28;19916;-78
2023/11/03 10:34:53;;;;;;;;;;;;;;;;;;6291283;28;20301;-78
2023/11/03 10:37:53;;;;;;;;;;;;;;;;;;6277789;28;19912;-79
2023/11/03 10:40:54;;;;;;;;;;;;;;;;;;6287661;28;20030;-77
2023/11/03 10:43:55;;;;;;;;;;;;;;;;;;6312394;28;20015;-80
2023/11/03 10:46:55;;;;;;;;;;;;;;;;;;6313428;28;19926;-77
2023/11/03 10:49:55;;;;;;;;;;;;;;;;;;6292752;28;20511;-77
2023/11/03 10:52:55;;;;;;;;;;;;;;;;;;6298732;28;19974;-77
2023/11/03 10:55:55;;;;;;;;;;;;;;;;;;6297604;28;19956;-77
2023/11/03 10:58:56;;;;;;;;;;;;;;;;;;6307403;28;20074;-83
2023/11/03 11:01:58;;;;;;;;;;;;;;;;;;6320992;28;20409;-82
2023/11/03 11:04:58;;;;;;;;;;;;;;;;;;6321286;28;19938;-83
2023/11/03 11:07:58;;;;;;;;;;;;;;;;;;6304856;28;19923;-84
2023/11/03 11:10:58;;;;;;;;;;;;;;;;;;6300017;28;19916;-83
2023/11/03 11:13:58;;;;;;;;;;;;;;;;;;6298740;28;19919;-85
2023/11/03 11:16:58;;;;;;;;;;;;;;;;;;6300626;28;19920;-83
2023/11/03 11:19:58;;;;;;;;;;;;;;;;;;6296072;28;20365;-83
2023/11/03 11:22:58;;;;;;;;;;;;;;;;;;6298222;28;19920;-83
2023/11/03 11:25:59;;;;;;;;;;;;;;;;;;6292971;28;19920;-83
2023/11/03 11:28:59;;;;;;;;;;;;;;;;;;6297364;28;19924;-82
2023/11/03 11:31:59;;;;;;;;;;;;;;;;;;6295602;28;20344;-81
2023/11/03 11:34:59;;;;;;;;;;;;;;;;;;6296479;28;20679;-82
2023/11/03 11:37:59;;;;;;;;;;;;;;;;;;6297965;28;19912;-82
2023/11/03 11:41:00;;;;;;;;;;;;;;;;;;6297429;28;19916;-81
2023/11/03 11:44:00;;;;;;;;;;;;;;;;;;6297556;28;19916;-79
2023/11/03 11:47:00;;;;;;;;;;;;;;;;;;6298957;28;21487;-79
2023/11/03 11:50:01;;;;;;;;;;;;;;;;;;6304743;28;20007;-82
2023/11/03 11:53:01;;;;;;;;;;;;;;;;;;6307320;28;19916;-80
2023/11/03 11:56:03;;;;;;;;;;;;;;;;;;6301371;28;19962;-79
2023/11/03 11:59:05;;;;;;;;;;;;;;;;;;6300034;28;19912;-80
2023/11/03 12:02:06;;;;;;;;;;;;;;;;;;6294834;28;20000;-79
2023/11/03 12:05:06;;;;;;;;;;;;;;;;;;6294844;28;19909;-79
2023/11/03 12:08:06;;;;;;;;;;;;;;;;;;6303819;28;19924;-78
2023/11/03 12:11:07;;;;;;;;;;;;;;;;;;6301211;28;19994;-78
2023/11/03 12:14:07;;;;;;;;;;;;;;;;;;6300082;28;19944;-79
2023/11/03 12:17:07;;;;;;;;;;;;;;;;;;6300076;28;19912;-81
2023/11/03 12:20:08;;;;;;;;;;;;;;;;;;6298430;28;19977;-80
2023/11/03 12:23:08;;;;;;;;;;;;;;;;;;6308203;28;20323;-80
2023/11/03 12:26:11;;;;;;;;;;;;;;;;;;6315746;28;20004;-79
2023/11/03 12:29:11;;;;;;;;;;;;;;;;;;6320738;28;19920;-79
2023/11/03 12:32:11;;;;;;;;;;;;;;;;;;6321315;28;19958;-78
2023/11/03 12:35:11;;;;;;;;;;;;;;;;;;6324507;28;20028;-80
2023/11/03 12:38:12;;;;;;;;;;;;;;;;;;6322475;28;19916;-80
2023/11/03 12:41:13;;;;;;;;;;;;;;;;;;6322915;28;19912;-78
2023/11/03 12:44:13;;;;;;;;;;;;;;;;;;6319999;28;19958;-80
2023/11/03 12:47:13;;;;;;;;;;;;;;;;;;6325688;28;19908;-79
2023/11/03 12:50:16;;;;;;;;;;;;;;;;;;6319074;28;19930;-80
2023/11/03 12:53:17;;;;;;;;;;;;;;;;;;6323873;28;19919;-80
2023/11/03 12:56:18;;;;;;;;;;;;;;;;;;6316293;28;20014;-80
2023/11/03 12:59:21;;;;;;;;;;;;;;;;;;6306441;28;19916;-80
2023/11/03 13:02:21;;;;;;;;;;;;;;;;;;6311316;28;20002;-80
2023/11/03 13:05:25;;;;;;;;;;;;;;;;;;6319942;28;19916;-80
2023/11/03 13:08:25;;;;;;;;;;;;;;;;;;6311113;28;20419;-80
2023/11/03 13:11:25;;;;;;;;;;;;;;;;;;6297051;28;19916;-78
2023/11/03 13:14:25;;;;;;;;;;;;;;;;;;6302915;28;19919;-81
2023/11/03 13:17:25;;;;;;;;;;;;;;;;;;6312381;28;20360;-90
2023/11/03 13:20:25;;;;;;;;;;;;;;;;;;6317468;28;19946;-90
2023/11/03 13:23:27;;;;;;;;;;;;;;;;;;6327436;28;19928;-88
2023/11/03 13:26:27;;;;;;;;;;;;;;;;;;6306395;28;20501;-87
2023/11/03 13:29:27;;;;;;;;;;;;;;;;;;6323179;28;19919;-86
2023/11/03 13:32:28;;;;;;;;;;;;;;;;;;6327487;28;19917;-89
2023/11/03 13:35:28;;;;;;;;;;;;;;;;;;6335568;28;19912;-88
2023/11/03 13:38:28;;;;;;;;;;;;;;;;;;6320836;28;19971;-88
2023/11/03 13:41:28;;;;;;;;;;;;;;;;;;6304453;28;20007;-88
2023/11/03 13:44:28;;;;;;;;;;;;;;;;;;6301281;28;20357;-89
2023/11/03 13:47:29;;;;;;;;;;;;;;;;;;6307987;28;19920;-89
2023/11/03 13:50:29;;;;;;;;;;;;;;;;;;6324938;28;19916;-90
2023/11/03 13:53:29;;;;;;;;;;;;;;;;;;6346869;28;19916;-89
2023/11/03 13:56:29;;;;;;;;;;;;;;;;;;6367273;27;20320;-89
2023/11/03 13:59:30;;;;;;;;;;;;;;;;;;6313232;28;19916;-89
2023/11/03 14:02:31;;;;;;;;;;;;;;;;;;6320378;28;19965;-89
2023/11/03 14:05:33;;;;;;;;;;;;;;;;;;6305852;28;19919;-89
2023/11/03 14:08:33;;;;;;;;;;;;;;;;;;6325815;28;20359;-89
2023/11/03 14:11:37;;;;;;;;;;;;;;;;;;6308581;28;19923;-88
2023/11/03 14:14:38;;;;;;;;;;;;;;;;;;6302451;28;19920;-88
2023/11/03 14:17:41;;;;;;;;;;;;;;;;;;6301326;28;20129;-89
2023/11/03 14:20:42;;;;;;;;;;;;;;;;;;6299295;28;20357;-89
2023/11/03 14:23:42;;;;;;;;;;;;;;;;;;6306330;28;19943;-89
2023/11/03 14:26:44;;;;;;;;;;;;;;;;;;6325468;28;19916;-88
2023/11/03 14:29:44;;;;;;;;;;;;;;;;;;6337215;28;19916;-89
2023/11/03 14:32:44;;;;;;;;;;;;;;;;;;6302080;28;19923;-88
2023/11/03 14:35:44;;;;;;;;;;;;;;;;;;6302992;28;19934;-89
2023/11/03 14:38:45;;;;;;;;;;;;;;;;;;6315135;28;20002;-89
2023/11/03 14:41:46;;;;;;;;;;;;;;;;;;6325562;28;19912;-88
2023/11/03 14:44:46;;;;;;;;;;;;;;;;;;6320146;28;20304;-88
2023/11/03 14:47:47;;;;;;;;;;;;;;;;;;6324285;28;19908;-88
2023/11/03 14:50:48;;;;;;;;;;;;;;;;;;6335609;28;19912;-87
2023/11/03 14:53:48;;;;;;;;;;;;;;;;;;6316926;28;19926;-89
2023/11/03 14:56:50;;;;;;;;;;;;;;;;;;6300081;28;19909;-90
2023/11/03 14:59:51;;;;;;;;;;;;;;;;;;6299951;28;20332;-89
2023/11/03 15:02:51;;;;;;;;;;;;;;;;;;6303858;28;19912;-89
2023/11/03 15:05:52;;;;;;;;;;;;;;;;;;6323924;28;20257;-88
2023/11/03 15:08:53;;;;;;;;;;;;;;;;;;6305294;28;19924;-88
2023/11/03 15:11:54;;;;;;;;;;;;;;;;;;5950165;28;9999849;-88
2023/11/03 15:14:55;;;;;;;;;;;;;;;;;;6320086;28;20006;-88
2023/11/03 15:17:55;;;;;;;;;;;;;;;;;;6299944;28;19917;-88
2023/11/03 15:20:55;;;;;;;;;;;;;;;;;;6312630;28;19980;-88
2023/11/03 15:23:55;;;;;;;;;;;;;;;;;;6295381;28;20335;-88
2023/11/03 15:26:58;;;;;;;;;;;;;;;;;;6298687;28;20383;-88
2023/11/03 15:29:58;;;;;;;;;;;;;;;;;;6302633;28;19923;-87
2023/11/03 15:32:59;;;;;;;;;;;;;;;;;;6314296;28;20373;-87
2023/11/03 15:36:00;;;;;;;;;;;;;;;;;;6296026;28;20593;-89
2023/11/03 15:39:06;;;;;;;;;;;;;;;;;;6314098;28;20022;-89
2023/11/03 15:42:08;;;;;;;;;;;;;;;;;;6298486;28;19974;-88
2023/11/03 15:45:11;;;;;;;;;;;;;;;;;;6297085;28;19928;-89
2023/11/03 15:48:11;;;;;;;;;;;;;;;;;;6299265;28;19927;-88
2023/11/03 15:51:11;;;;;;;;;;;;;;;;;;6306176;28;20352;-90
2023/11/03 15:54:11;;;;;;;;;;;;;;;;;;6300632;28;19971;-89
2023/11/03 15:57:12;;;;;;;;;;;;;;;;;;6318737;28;19912;-88
2023/11/03 16:00:13;;;;;;;;;;;;;;;;;;6308345;28;20029;-89
2023/11/03 16:03:16;;;;;;;;;;;;;;;;;;6303608;28;20289;-89
2023/11/03 16:06:17;;;;;;;;;;;;;;;;;;6298814;28;19917;-87
2023/11/03 16:09:17;;;;;;;;;;;;;;;;;;6318518;28;19931;-85
2023/11/03 16:12:17;;;;;;;;;;;;;;;;;;6311707;28;20015;-86
2023/11/03 16:15:17;;;;;;;;;;;;;;;;;;6321633;28;20424;-86
2023/11/03 16:18:17;;;;;;;;;;;;;;;;;;6305394;28;19924;-86
2023/11/03 16:21:18;;;;;;;;;;;;;;;;;;6322298;28;19931;-85
2023/11/03 16:24:18;;;;;;;;;;;;;;;;;;6298232;28;19978;-87
2023/11/03 16:27:18;;;;;;;;;;;;;;;;;;6299336;28;19955;-85
2023/11/03 16:30:18;;;;;;;;;;;;;;;;;;6311774;28;19919;-85
2023/11/03 16:33:18;;;;;;;;;;;;;;;;;;6307892;28;19920;-86
2023/11/03 16:36:19;;;;;;;;;;;;;;;;;;6294576;28;20365;-86
2023/11/03 16:39:19;;;;;;;;;;;;;;;;;;6295350;28;19952;-86
2023/11/03 16:42:19;;;;;;;;;;;;;;;;;;6300674;28;19958;-86
2023/11/03 16:45:20;;;;;;;;;;;;;;;;;;6314446;28;19956;-86
2023/11/03 16:48:26;;;;;;;;;;;;;;;;;;6293645;28;19997;-86
2023/11/03 16:51:26;;;;;;;;;;;;;;;;;;6295379;28;19924;-88
2023/11/03 16:54:27;;;;;;;;;;;;;;;;;;6294275;28;19983;-85
2023/11/03 16:57:27;;;;;;;;;;;;;;;;;;6297762;28;19924;-85
2023/11/03 17:00:28;;;;;;;;;;;;;;;;;;6295524;28;19923;-85
2023/11/03 17:03:28;;;;;;;;;;;;;;;;;;6310415;27;19920;-86
2023/11/03 17:06:28;;;;;;;;;;;;;;;;;;6294180;28;20399;-87
2023/11/03 17:09:28;;;;;;;;;;;;;;;;;;6296443;28;20043;-89
2023/11/03 17:12:28;;;;;;;;;;;;;;;;;;6318342;27;19959;-90
2023/11/03 17:15:29;;;;;;;;;;;;;;;;;;6302918;28;20335;-90
2023/11/03 17:18:29;;;;;;;;;;;;;;;;;;6301417;28;19917;-89
2023/11/03 17:21:29;;;;;;;;;;;;;;;;;;6319193;28;19911;-90
2023/11/03 17:24:29;;;;;;;;;;;;;;;;;;6365836;27;19971;-89
2023/11/03 17:27:29;;;;;;;;;;;;;;;;;;6335618;28;20353;-90
2023/11/03 17:30:29;;;;;;;;;;;;;;;;;;6341314;28;19912;-90
2023/11/03 17:33:31;;;;;;;;;;;;;;;;;;6324430;28;19938;-88
2023/11/03 17:36:31;;;;;;;;;;;;;;;;;;6312589;28;19955;-91
2023/11/03 17:39:31;;;;;;;;;;;;;;;;;;6325483;28;19908;-90
2023/11/03 17:42:31;;;;;;;;;;;;;;;;;;6325548;28;20003;-90
2023/11/03 17:45:31;;;;;;;;;;;;;;;;;;6320440;28;19970;-83
2023/11/03 17:48:34;;;;;;;;;;;;;;;;;;5946550;28;9999791;-87
2023/11/03 17:51:37;;;;;;;;;;;;;;;;;;6315250;28;19975;-87
2023/11/03 17:54:37;;;;;;;;;;;;;;;;;;6302515;28;19924;-84
2023/11/03 17:57:37;;;;;;;;;;;;;;;;;;6315673;28;20328;-86
2023/11/03 18:00:37;;;;;;;;;;;;;;;;;;6304974;28;20377;-90
2023/11/03 18:03:37;;;;;;;;;;;;;;;;;;6299031;28;19916;-87
2023/11/03 18:06:38;;;;;;;;;;;;;;;;;;6294581;28;20757;-85
2023/11/03 18:09:38;;;;;;;;;;;;;;;;;;6292170;28;19923;-79
2023/11/03 18:12:38;;;;;;;;;;;;;;;;;;6294404;28;19969;-80
2023/11/03 18:15:39;;;;;;;;;;;;;;;;;;6294878;28;19917;-79
2023/11/03 18:18:39;;;;;;;;;;;;;;;;;;6285508;28;19921;-79
2023/11/03 18:21:40;;;;;;;;;;;;;;;;;;6295884;28;20261;-80
2023/11/03 18:24:40;;;;;;;;;;;;;;;;;;6309876;28;19916;-81
2023/11/03 18:27:40;;;;;;;;;;;;;;;;;;6294517;28;19999;-80
2023/11/03 18:30:41;;;;;;;;;;;;;;;;;;6299478;28;19920;-83
2023/11/03 18:33:41;;;;;;;;;;;;;;;;;;6313996;28;19939;-81
2023/11/03 18:36:42;;;;;;;;;;;;;;;;;;6298793;28;19928;-80
2023/11/03 18:39:43;;;;;;;;;;;;;;;;;;6294199;28;19928;-80
2023/11/03 18:42:46;;;;;;;;;;;;;;;;;;6294852;28;19919;-79
2023/11/03 18:45:46;;;;;;;;;;;;;;;;;;6290728;28;20007;-78
2023/11/03 18:48:46;;;;;;;;;;;;;;;;;;6293155;28;20276;-78
2023/11/03 18:51:46;;;;;;;;;;;;;;;;;;6310992;28;20486;-79
2023/11/03 18:54:47;;;;;;;;;;;;;;;;;;6293338;28;19924;-79
2023/11/03 18:57:47;;;;;;;;;;;;;;;;;;6305773;28;19920;-78
2023/11/03 19:00:47;;;;;;;;;;;;;;;;;;6297386;28;19943;-79
2023/11/03 19:03:48;;;;;;;;;;;;;;;;;;6308613;28;20388;-78
2023/11/03 19:06:49;;;;;;;;;;;;;;;;;;6308130;27;19989;-79
2023/11/03 19:09:49;;;;;;;;;;;;;;;;;;6288263;28;19929;-79
2023/11/03 19:12:49;;;;;;;;;;;;;;;;;;6305142;28;19925;-79
2023/11/03 19:15:52;;;;;;;;;;;;;;;;;;6304229;28;19923;-80
2023/11/03 19:18:54;;;;;;;;;;;;;;;;;;6312772;28;19912;-88
2023/11/03 19:21:54;;;;;;;;;;;;;;;;;;6332416;28;19931;-90
2023/11/03 19:24:54;;;;;;;;;;;;;;;;;;6312633;28;20010;-91
2023/11/03 19:27:54;;;;;;;;;;;;;;;;;;6314559;28;20002;-89
2023/11/03 19:30:54;;;;;;;;;;;;;;;;;;6318349;28;19912;-88
2023/11/03 19:33:57;;;;;;;;;;;;;;;;;;6320628;28;19961;-90
2023/11/03 19:36:57;;;;;;;;;;;;;;;;;;6337414;28;19974;-89
2023/11/03 19:39:57;;;;;;;;;;;;;;;;;;6335407;28;20293;-91
2023/11/03 19:42:57;;;;;;;;;;;;;;;;;;6306514;28;19922;-90
2023/11/03 19:45:58;;;;;;;;;;;;;;;;;;6302530;28;19919;-90
2023/11/03 19:48:58;;;;;;;;;;;;;;;;;;6312260;28;19927;-89
2023/11/03 19:51:58;;;;;;;;;;;;;;;;;;6317804;28;19959;-89
2023/11/03 19:54:58;;;;;;;;;;;;;;;;;;6305759;28;19985;-89
2023/11/03 19:57:58;;;;;;;;;;;;;;;;;;6320062;28;19916;-90
2023/11/03 20:00:59;;;;;;;;;;;;;;;;;;6315477;28;19916;-89
2023/11/03 20:03:59;;;;;;;;;;;;;;;;;;6314699;28;19916;-89
2023/11/03 20:07:01;;;;;;;;;;;;;;;;;;6300041;28;19959;-88
2023/11/03 20:10:01;;;;;;;;;;;;;;;;;;5606104;28;10000715;-89
2023/11/03 20:13:01;;;;;;;;;;;;;;;;;;6313234;28;19913;-89
2023/11/03 20:16:02;;;;;;;;;;;;;;;;;;6333892;28;19969;-88
2023/11/03 20:19:03;;;;;;;;;;;;;;;;;;6299397;28;19943;-89
2023/11/03 20:22:03;;;;;;;;;;;;;;;;;;6305181;28;20042;-88
2023/11/03 20:25:04;;;;;;;;;;;;;;;;;;6296864;28;19909;-89
2023/11/03 20:28:04;;;;;;;;;;;;;;;;;;6318595;28;20376;-88
2023/11/03 20:31:05;;;;;;;;;;;;;;;;;;6325794;28;20378;-89
2023/11/03 20:34:05;;;;;;;;;;;;;;;;;;6320791;28;19951;-88